Concord Municipal Airport Concord US
ICAO: KCON
IATA: CON
Category: Medium
Scheduled Services: No

Elevation: 342 ft
TransAlt. 18000 ft.

Airport Communications:
BOSTON APP/DEP:127.35
ASOS:132.32
CLNC DEL:133.65
ARNG OPS:32.1
BANGOR RDO:122.3
CTAF/UNICOM:122.7

KCON Zoom In..

If you have problems with the map follow the link
https://www.worldairports.se/pages/airport.php?
ICAO=KCON

Runways:

(A) RW 12 length 3200 ft width 75 ft
---- / hdg 121

(B) RW 17 length 6005 ft width 100 ft
---- / hdg 171

(C) RW 30 length 3200 ft width 75 ft
---- / hdg 301

(D) RW 35 length 6005 ft width 100 ft
ILS 108.70 / hdg 351

Location; KCON
Day. 23 / Time. 07.51 Zulu
* Altimeter: 30.13
* Temperature: 04° c. 39.2°f.
* Wind from: 140° Speed 04 kn.
Dewpoint: 01° c.
Visibility: 10 Statute Miles.
Clouds: Overcast 8500 ft.

KCON 230751Z AUTO 14004KT 10SM OVC085 04/01 A3013 RMK AO2 SLP207 T00440011


Wind From 140°
Speed 04 kn.

 
 
jpsmedia.com for Web Design worldairports.se 2018   terms of use